Northwich, United Kingdom
Current Conditions -  °F | °C
As of 5:50 AM on Saturday 20 Dec 2014 (Local Time) from EGCC Reporting Station
Broken Clouds Broken Clouds  
Wind Chill: 36°   Ceiling: 3100
Heat Index: 45°   Visibility: 6mi
Dew Point: 39°   Wind: 21mph
Humidity: 81%   Direction: 280°W
Pressure: 30.09"   Gusts: 32mph
Location:  53.26°N, 2.52°W
Report Text: EGCC 200550Z 28018G28KT 9999 SCT020 BKN031 BKN036 07/04 Q1019 NOSIG
Loading
Personal Weather Stations






























Interactive Weather Map New forecast layout! Learn more

10-Day Weather Forecast

Advertisements
Track Severe Weather on mobile